Time;durP1;ratioP1;P1;durP2;ratioP2;P2;SDS_P1;SDS_P2;PMS_P1;PMS_P2;Temp;Humidity;BMP_temperature;BMP_pressure;BME280_temperature;BME280_humidity;BME280_pressure;Samples;Min_cycle;Max_cycle;Signal;HPM_P1;HPM_P2
2021/04/13 00:01:27;;;;;;;8.55;4.28;;;3.60;82.60;;;2.20;68.14;99525.78;4996332;28;20767;-83
2021/04/13 00:04:09;;;;;;;6.72;4.45;;;3.50;82.80;;;2.08;68.59;99526.13;4996015;28;20415;-83
2021/04/13 00:06:41;;;;;;;5.40;4.38;;;3.40;83.40;;;2.26;67.80;99524.38;4996157;28;20407;-84
2021/04/13 00:09:16;;;;;;;7.43;4.15;;;3.50;83.10;;;2.20;68.55;99528.41;4996322;28;20517;-84
2021/04/13 00:11:46;;;;;;;6.38;4.18;;;3.40;83.30;;;2.35;67.52;99515.66;4994821;28;20421;-85
2021/04/13 00:14:16;;;;;;;6.65;4.40;;;3.60;82.90;;;2.28;68.34;99527.69;4995735;28;20430;-84
2021/04/13 00:16:43;;;;;;;6.63;4.13;;;3.50;83.10;;;2.39;67.93;99521.44;4996058;28;20836;-84
2021/04/13 00:19:11;;;;;;;7.03;4.32;;;3.60;82.80;;;2.42;67.88;99527.19;5008555;28;20425;-83
2021/04/13 00:21:43;;;;;;;8.02;3.90;;;3.60;82.80;;;2.46;67.58;99525.13;5007286;28;20448;-83
2021/04/13 00:24:16;;;;;;;7.45;4.03;;;3.60;82.50;;;2.54;67.60;99526.03;5021288;28;20452;-84
2021/04/13 00:26:47;;;;;;;6.25;4.22;;;3.70;82.60;;;2.75;67.13;99527.53;5023220;28;20409;-84
2021/04/13 00:29:19;;;;;;;5.82;3.97;;;3.80;82.30;;;2.90;66.88;99526.88;5020851;28;20851;-85
2021/04/13 00:31:48;;;;;;;10.05;4.20;;;4.00;81.90;;;2.92;65.86;99526.72;5015435;28;20461;-85
2021/04/13 00:34:29;;;;;;;7.57;4.20;;;4.10;81.00;;;3.05;65.73;99521.94;4997102;28;20432;-84
2021/04/13 00:37:23;;;;;;;6.10;4.13;;;4.20;80.90;;;3.01;65.42;99517.94;5018011;28;20397;-84
2021/04/13 00:39:53;;;;;;;5.05;3.95;;;4.30;79.80;;;2.63;66.33;99519.09;5018364;28;20471;-85
2021/04/13 00:42:30;;;;;;;6.23;4.23;;;4.00;80.20;;;2.44;67.28;99527.88;5017575;28;20455;-85
2021/04/13 00:45:04;;;;;;;4.95;3.92;;;3.80;81.20;;;2.60;67.42;99527.22;5019163;28;20420;-85
2021/04/13 00:47:34;;;;;;;7.53;4.53;;;3.80;82.30;;;2.30;68.25;99526.56;5018935;28;20793;-83
2021/04/13 00:50:08;;;;;;;9.90;4.80;;;3.60;82.40;;;2.33;68.23;99523.66;5001152;28;20425;-85
2021/04/13 00:52:39;;;;;;;7.50;4.43;;;3.60;83.10;;;2.50;67.90;99523.84;5018047;28;20401;-83
2021/04/13 00:55:12;;;;;;;7.00;4.70;;;3.60;83.10;;;2.59;67.69;99526.41;5018092;28;20435;-83
2021/04/13 00:57:44;;;;;;;8.90;4.18;;;3.80;82.90;;;2.49;68.08;99523.00;5018489;28;20400;-83
2021/04/13 01:00:18;;;;;;;7.87;4.67;;;3.80;82.70;;;2.48;68.12;99531.03;5019370;28;20409;-85
2021/04/13 01:02:44;;;;;;;8.15;4.85;;;3.70;82.70;;;2.60;67.79;99525.44;5027464;28;20454;-83
2021/04/13 01:05:18;;;;;;;7.15;4.40;;;3.80;82.90;;;2.39;68.36;99531.91;5029391;28;20405;-82
2021/04/13 01:07:48;;;;;;;6.38;4.38;;;3.70;82.60;;;2.43;68.19;99534.06;5028185;28;20461;-84
2021/04/13 01:10:23;;;;;;;9.30;4.53;;;3.70;82.90;;;2.37;68.76;99528.59;5019886;28;20445;-85
2021/04/13 01:13:02;;;;;;;8.93;4.50;;;3.70;83.30;;;2.33;68.82;99534.09;5017820;28;20486;-85
2021/04/13 01:15:28;;;;;;;7.78;4.38;;;3.60;83.50;;;2.42;68.76;99532.41;5000820;28;20409;-85
2021/04/13 01:17:54;;;;;;;6.00;4.30;;;3.60;83.60;;;2.26;69.02;99532.22;5018206;28;20416;-85
2021/04/13 01:20:32;;;;;;;6.40;4.28;;;3.50;83.60;;;2.29;69.53;99534.56;5022268;28;20409;-85
2021/04/13 01:25:32;;;;;;;7.63;5.40;;;3.50;84.10;;;2.28;68.98;99535.50;5019506;28;20799;-84
2021/04/13 01:28:01;;;;;;;6.85;4.30;;;3.50;84.20;;;2.42;68.79;99529.78;5018678;28;20652;-84
2021/04/13 01:30:36;;;;;;;7.63;4.47;;;3.60;84.20;;;2.54;68.64;99530.44;5017400;28;20820;-85
2021/04/13 01:33:09;;;;;;;7.18;4.32;;;3.70;84.50;;;2.69;68.08;99529.78;5017463;28;20476;-85
2021/04/13 01:35:36;;;;;;;6.63;4.20;;;3.90;83.40;;;2.72;67.48;99528.63;5018395;28;20415;-84
2021/04/13 01:41:02;;;;;;;6.50;4.13;;;4.00;82.40;;;2.88;66.91;99533.22;5017635;28;20409;-85
2021/04/13 01:43:30;;;;;;;7.30;4.10;;;4.00;82.10;;;2.88;66.45;99528.81;5018345;28;20417;-84
2021/04/13 01:45:58;;;;;;;7.17;4.50;;;4.10;81.50;;;2.84;66.69;99526.66;5001036;28;20409;-85
2021/04/13 01:48:25;;;;;;;8.20;4.55;;;4.00;81.30;;;2.83;66.54;99532.84;5017218;28;20693;-85
2021/04/13 01:50:58;;;;;;;6.85;4.35;;;4.00;81.20;;;2.81;66.17;99533.00;5016946;28;20416;-85
2021/04/13 01:53:26;;;;;;;7.07;4.53;;;4.00;81.10;;;2.80;66.36;99535.75;4999773;28;20447;-85
2021/04/13 01:55:58;;;;;;;7.37;4.67;;;4.00;81.10;;;2.79;66.00;99529.69;5017269;28;20409;-84
2021/04/13 01:58:36;;;;;;;5.07;4.38;;;4.00;80.80;;;2.78;66.08;99529.88;5016587;28;20435;-85
2021/04/13 02:01:12;;;;;;;8.57;5.32;;;4.00;80.90;;;2.73;65.99;99525.06;5016919;28;20401;-85
2021/04/13 02:03:44;;;;;;;7.93;4.43;;;3.90;80.60;;;2.50;67.60;99535.13;5014836;28;20500;-84
2021/04/13 02:06:16;;;;;;;8.38;4.53;;;3.80;81.70;;;2.18;68.68;99538.16;5016270;28;20413;-84
2021/04/13 02:08:50;;;;;;;7.97;4.70;;;3.50;82.60;;;2.18;68.97;99534.75;5016377;28;20420;-84
2021/04/13 02:11:23;;;;;;;8.05;5.13;;;3.30;83.90;;;1.98;68.92;99546.25;5018320;28;20416;-83
2021/04/13 02:13:56;;;;;;;6.18;5.00;;;3.30;83.80;;;1.79;70.41;99545.34;5020748;28;20527;-85
2021/04/13 02:16:29;;;;;;;7.05;5.28;;;3.10;85.10;;;1.69;70.43;99546.34;5016555;28;20410;-84
2021/04/13 02:18:56;;;;;;;8.33;5.63;;;3.00;85.50;;;1.85;69.86;99551.78;5016408;28;20462;-85
2021/04/13 02:21:29;;;;;;;6.65;5.32;;;3.10;85.20;;;1.72;69.89;99543.44;4998483;28;20425;-85
2021/04/13 02:24:00;;;;;;;7.90;5.40;;;3.00;84.90;;;1.75;70.47;99546.59;5018862;28;20425;-85
2021/04/13 02:26:28;;;;;;;12.45;5.82;;;3.00;85.40;;;1.71;70.36;99547.03;5020421;28;20417;-85
2021/04/13 02:28:56;;;;;;;8.88;6.10;;;3.00;85.40;;;1.65;70.71;99544.97;5018287;28;20417;-85
2021/04/13 02:31:47;;;;;;;6.78;5.82;;;2.90;86.30;;;1.58;70.67;99547.31;5017250;28;20405;-85
2021/04/13 02:34:17;;;;;;;7.10;5.38;;;2.90;85.90;;;1.63;70.56;99549.50;5015791;28;20699;-85
2021/04/13 02:36:47;;;;;;;11.82;5.47;;;2.90;85.80;;;1.66;70.23;99555.25;5015102;28;20416;-83
2021/04/13 02:39:16;;;;;;;9.13;5.72;;;2.80;85.70;;;1.65;70.26;99548.41;5013031;28;20687;-84
2021/04/13 02:41:49;;;;;;;8.05;5.32;;;2.80;85.30;;;1.76;69.70;99557.84;5013251;28;20436;-85
2021/04/13 02:44:19;;;;;;;8.43;5.35;;;2.90;85.00;;;1.91;68.92;99553.81;5013654;28;20482;-85
2021/04/13 02:46:46;;;;;;;8.67;5.57;;;3.00;84.50;;;1.96;68.75;99562.03;5012872;28;20431;-85
2021/04/13 02:49:17;;;;;;;6.90;4.95;;;3.10;84.00;;;2.03;67.73;99557.91;5013364;28;20416;-85
2021/04/13 02:51:51;;;;;;;7.38;5.53;;;3.20;82.90;;;2.09;67.29;99553.91;5014350;28;20443;-84
2021/04/13 02:54:21;;;;;;;8.75;5.78;;;3.30;82.70;;;2.07;67.44;99561.88;5015616;28;20523;-84
2021/04/13 02:56:52;;;;;;;7.45;4.78;;;3.20;82.30;;;2.04;67.19;99558.72;5015191;28;20420;-84
2021/04/13 02:59:25;;;;;;;8.38;5.55;;;3.20;82.10;;;1.92;67.95;99556.31;4996554;28;20421;-84
2021/04/13 03:02:02;;;;;;;8.38;4.95;;;3.10;82.50;;;1.92;68.02;99563.31;4999187;28;20436;-83
2021/04/13 03:04:29;;;;;;;8.77;5.20;;;3.20;82.60;;;1.90;67.45;99558.22;5016008;28;20420;-84
2021/04/13 03:06:59;;;;;;;9.63;5.18;;;3.10;82.50;;;2.04;66.70;99567.38;4998469;28;20425;-85
2021/04/13 03:09:27;;;;;;;8.00;5.43;;;3.30;81.90;;;2.14;66.84;99568.19;5015509;28;20417;-85
2021/04/13 03:11:59;;;;;;;9.85;5.50;;;3.30;81.80;;;2.26;65.93;99560.97;5016215;28;20413;-85
2021/04/13 03:14:33;;;;;;;8.23;5.00;;;3.40;81.30;;;2.36;66.00;99566.16;5015369;28;20487;-85
2021/04/13 03:17:00;;;;;;;8.83;5.23;;;3.50;80.80;;;2.39;65.45;99561.47;5015724;28;20474;-85
2021/04/13 03:19:28;;;;;;;8.52;5.18;;;3.60;80.60;;;2.44;65.12;99568.84;5015710;28;20474;-85
2021/04/13 03:22:02;;;;;;;11.93;5.40;;;3.60;80.20;;;2.55;65.20;99573.91;5015784;28;20464;-85
2021/04/13 03:24:33;;;;;;;11.13;5.03;;;3.70;80.20;;;2.24;66.53;99565.53;5015394;28;20456;-84
2021/04/13 03:27:05;;;;;;;7.50;5.22;;;3.60;80.20;;;2.28;66.41;99561.66;5016269;28;20405;-84
2021/04/13 03:29:40;;;;;;;7.18;5.22;;;3.50;81.00;;;2.29;66.51;99555.47;5015409;28;20423;-85
2021/04/13 03:32:08;;;;;;;8.25;5.43;;;3.50;81.30;;;2.19;67.41;99555.50;5015867;28;20407;-85
2021/04/13 03:34:38;;;;;;;10.98;6.40;;;3.40;82.00;;;2.20;67.46;99545.88;4999339;28;20862;-85
2021/04/13 03:37:06;;;;;;;8.13;4.80;;;3.40;82.40;;;2.17;67.55;99551.41;5016732;28;20469;-85
2021/04/13 03:39:35;;;;;;;8.15;5.25;;;3.40;82.30;;;2.16;67.37;99553.19;5015549;28;20483;-84
2021/04/13 03:42:05;;;;;;;10.18;5.70;;;3.40;82.30;;;2.25;67.51;99549.72;5015388;28;20582;-85
2021/04/13 03:44:31;;;;;;;7.60;5.47;;;3.40;82.20;;;2.22;67.51;99559.63;5015672;28;20419;-84
2021/04/13 03:46:58;;;;;;;7.95;5.78;;;3.40;82.10;;;2.14;67.53;99560.34;5015905;28;20416;-85
2021/04/13 03:49:36;;;;;;;9.27;5.53;;;3.40;82.30;;;2.33;67.16;99556.84;5015651;28;20409;-85
2021/04/13 03:52:08;;;;;;;8.90;5.68;;;3.40;82.30;;;1.94;67.88;99564.00;5015448;28;20415;-85
2021/04/13 03:54:38;;;;;;;13.90;5.90;;;3.20;82.70;;;1.74;68.80;99565.00;5013689;28;20421;-85
2021/04/13 03:57:07;;;;;;;7.00;5.30;;;3.00;83.40;;;1.71;68.71;99560.06;4998482;28;20439;-84
2021/04/13 03:59:36;;;;;;;9.13;5.82;;;3.00;83.50;;;1.53;69.34;99570.41;5015219;28;20454;-84
2021/04/13 04:02:05;;;;;;;9.27;5.82;;;2.80;83.80;;;1.51;69.24;99567.94;5015476;28;20425;-84
2021/04/13 04:04:36;;;;;;;11.10;6.45;;;2.80;84.00;;;1.43;69.08;99575.63;4997431;28;20574;-84
2021/04/13 04:07:34;;;;;;;9.07;6.27;;;2.70;83.80;;;1.39;69.27;99570.84;4998556;28;20588;-84
2021/04/13 04:10:00;;;;;;;9.07;6.28;;;2.70;84.40;;;1.30;69.83;99580.31;5015806;28;20485;-84
2021/04/13 04:12:33;;;;;;;10.55;6.25;;;2.60;84.80;;;1.34;70.41;99578.28;5006077;28;20505;-83
2021/04/13 04:15:04;;;;;;;10.32;6.50;;;2.60;85.20;;;1.36;69.65;99579.75;5019086;28;20748;-82
2021/04/13 04:17:33;;;;;;;7.70;5.35;;;2.60;84.90;;;1.42;69.47;99579.22;5016950;28;20528;-83
2021/04/13 04:20:04;;;;;;;8.30;5.78;;;2.60;84.80;;;1.50;69.08;99579.34;5023284;28;20445;-84
2021/04/13 04:22:30;;;;;;;11.35;6.15;;;2.70;84.20;;;1.52;68.61;99587.03;5020681;28;20436;-85
2021/04/13 04:25:14;;;;;;;9.90;6.03;;;2.70;83.80;;;1.59;67.95;99582.06;5020742;28;20440;-85
2021/04/13 04:27:43;;;;;;;12.82;6.18;;;2.80;83.30;;;1.83;67.03;99582.44;5018614;28;20438;-85
2021/04/13 04:30:24;;;;;;;11.02;6.65;;;2.90;82.60;;;1.85;66.96;99583.13;5000351;28;20412;-84
2021/04/13 04:32:52;;;;;;;10.65;6.00;;;3.10;82.10;;;1.86;66.57;99585.59;5018995;28;20455;-83
2021/04/13 04:35:45;;;;;;;9.82;6.13;;;3.10;81.50;;;1.64;67.43;99595.53;5001889;28;20802;-83
2021/04/13 04:38:26;;;;;;;8.60;6.50;;;2.90;81.70;;;1.51;67.63;99591.41;4981033;28;20448;-83
2021/04/13 04:41:02;;;;;;;9.25;6.50;;;2.80;81.80;;;1.47;67.27;99590.06;5016005;28;20405;-83
2021/04/13 04:43:54;;;;;;;11.73;6.63;;;2.70;81.80;;;1.39;67.78;99595.16;5016705;28;20828;-83
2021/04/13 04:46:38;;;;;;;11.20;6.90;;;2.70;82.30;;;1.60;67.03;99594.16;5018065;28;20508;-85
2021/04/13 04:49:08;;;;;;;10.02;6.55;;;2.70;82.50;;;1.63;66.63;99601.72;5017701;28;20413;-84
2021/04/13 04:51:34;;;;;;;11.55;6.80;;;2.80;81.60;;;1.74;66.40;99597.16;5018232;28;20409;-85
2021/04/13 04:54:01;;;;;;;12.23;7.18;;;2.90;81.80;;;1.68;66.35;99602.13;5018320;28;20489;-84
2021/04/13 04:56:27;;;;;;;11.25;7.03;;;2.90;81.40;;;1.59;66.62;99601.16;5019167;28;20435;-83
2021/04/13 04:58:54;;;;;;;12.30;7.53;;;2.90;81.00;;;1.57;66.93;99600.50;5017787;28;20432;-84
2021/04/13 05:01:21;;;;;;;8.85;6.75;;;2.80;81.50;;;1.44;67.31;99610.38;5017761;28;20412;-86
2021/04/13 05:03:47;;;;;;;10.23;7.43;;;2.80;81.70;;;1.48;66.76;99614.38;5017917;28;20424;-85
2021/04/13 05:06:14;;;;;;;10.43;6.87;;;2.80;81.50;;;1.38;67.49;99619.59;5017200;28;20492;-82
2021/04/13 05:08:40;;;;;;;11.45;7.10;;;2.70;82.00;;;1.31;67.55;99617.66;5017577;28;20806;-84
2021/04/13 05:11:07;;;;;;;9.35;7.15;;;2.60;81.80;;;1.24;67.99;99619.19;5018427;28;20451;-84
2021/04/13 05:13:33;;;;;;;11.18;7.75;;;2.50;82.50;;;1.31;67.45;99623.72;5017977;28;20511;-85
2021/04/13 05:16:00;;;;;;;11.38;7.60;;;2.60;82.50;;;1.24;67.83;99627.84;5018710;28;20420;-85
2021/04/13 05:18:27;;;;;;;11.80;7.50;;;2.50;82.60;;;1.43;67.78;99635.66;5017767;28;20424;-84
2021/04/13 05:20:53;;;;;;;11.30;7.65;;;2.60;82.90;;;1.48;67.25;99632.66;5002086;28;20405;-85
2021/04/13 05:23:20;;;;;;;11.48;7.90;;;2.60;82.10;;;1.65;67.01;99642.41;5017296;28;20855;-85
2021/04/13 05:25:47;;;;;;;20.05;7.60;;;2.80;82.10;;;1.78;67.01;99636.88;4996019;28;20893;-85
2021/04/13 05:28:15;;;;;;;10.57;7.15;;;3.00;82.00;;;1.97;65.94;99644.66;4997674;28;20435;-84
2021/04/13 05:30:41;;;;;;;10.65;7.60;;;3.10;80.90;;;2.09;65.38;99643.56;4997416;28;20697;-83
2021/04/13 05:33:09;;;;;;;12.52;7.78;;;3.30;81.20;;;2.21;65.12;99633.75;4996731;28;20418;-84
2021/04/13 05:35:36;;;;;;;16.02;8.00;;;3.30;80.00;;;2.50;64.39;99647.50;5000920;28;20514;-84
2021/04/13 05:38:06;;;;;;;11.90;7.53;;;3.50;79.30;;;2.36;63.77;99647.16;4997646;28;20707;-84
2021/04/13 05:40:34;;;;;;;15.27;8.15;;;3.60;78.00;;;2.23;64.15;99652.72;4980662;28;20477;-83
2021/04/13 05:43:01;;;;;;;11.25;8.32;;;3.50;78.40;;;2.24;64.66;99655.19;4997253;28;20445;-86
2021/04/13 05:45:34;;;;;;;12.00;8.30;;;3.40;79.10;;;2.42;64.57;99655.25;4981938;28;20801;-85
2021/04/13 05:48:01;;;;;;;14.20;8.45;;;3.50;79.10;;;2.37;64.10;99657.47;4998259;28;20418;-84
2021/04/13 05:50:35;;;;;;;13.60;8.75;;;3.50;78.50;;;2.47;63.86;99655.66;4998282;28;20422;-86
2021/04/13 05:53:02;;;;;;;11.02;7.97;;;3.60;78.60;;;2.33;63.93;99662.16;4997657;28;20426;-86
2021/04/13 05:55:30;;;;;;;13.32;8.80;;;3.60;78.30;;;1.98;65.46;99658.53;4997736;28;20415;-85
2021/04/13 05:58:02;;;;;;;14.82;9.02;;;3.30;79.50;;;1.97;65.76;99665.56;4998701;28;20425;-84
2021/04/13 06:00:29;;;;;;;16.45;8.60;;;3.30;79.90;;;2.12;65.19;99664.16;5008471;28;20396;-84
2021/04/13 06:02:57;;;;;;;11.83;8.30;;;3.30;79.80;;;2.03;65.32;99664.97;5005438;28;20470;-85
2021/04/13 06:05:29;;;;;;;10.88;8.52;;;3.30;79.70;;;2.10;65.22;99671.31;5007725;28;20471;-83
2021/04/13 06:07:56;;;;;;;13.95;8.05;;;3.30;79.90;;;2.24;64.81;99665.66;4999276;28;20437;-84
2021/04/13 06:10:25;;;;;;;13.85;8.45;;;3.40;79.70;;;2.41;64.83;99664.06;4981600;28;20415;-85
2021/04/13 06:12:53;;;;;;;10.63;8.23;;;3.50;79.60;;;2.55;64.08;99665.41;4996009;28;20533;-84
2021/04/13 06:15:21;;;;;;;13.15;8.80;;;3.70;78.50;;;2.78;63.71;99658.84;4997888;28;20832;-84
2021/04/13 06:17:47;;;;;;;12.80;9.00;;;3.80;78.50;;;3.10;62.02;99671.44;4979493;28;20778;-83
2021/04/13 06:20:16;;;;;;;14.30;8.50;;;4.10;77.00;;;3.01;61.26;99667.06;4997701;28;20513;-83
2021/04/13 06:22:44;;;;;;;13.65;8.75;;;4.30;75.10;;;2.95;61.69;99671.09;4996195;28;20491;-83
2021/04/13 06:25:12;;;;;;;12.87;8.40;;;4.10;75.80;;;3.15;61.02;99666.59;4996807;28;20935;-84
2021/04/13 06:27:39;;;;;;;14.65;8.95;;;4.20;75.50;;;2.98;61.11;99683.91;4997214;28;20414;-84
2021/04/13 06:30:07;;;;;;;43.55;26.38;;;4.20;75.00;;;2.86;61.89;99679.00;4997734;28;20877;-83
2021/04/13 06:32:34;;;;;;;11.05;9.10;;;4.10;75.80;;;2.94;61.43;99679.09;4978870;28;20821;-83
2021/04/13 06:35:00;;;;;;;13.68;9.82;;;4.10;75.50;;;3.11;61.22;99683.53;4994379;28;20410;-84
2021/04/13 06:37:26;;;;;;;16.40;8.63;;;4.30;75.40;;;3.22;60.95;99679.91;4995045;28;20439;-84
2021/04/13 06:39:53;;;;;;;17.73;8.80;;;4.40;75.30;;;3.09;61.41;99688.91;4996955;28;20997;-84
2021/04/13 06:42:48;;;;;;;14.67;9.47;;;4.30;75.40;;;3.47;60.37;99690.47;4996438;28;20863;-84
2021/04/13 06:45:32;;;;;;;16.35;9.50;;;4.40;75.30;;;3.31;60.41;99686.84;5011215;28;20445;-84
2021/04/13 06:48:32;;;;;;;13.77;9.60;;;4.50;74.20;;;3.32;61.32;99691.94;4998217;28;20428;-84
2021/04/13 06:51:09;;;;;;;15.07;8.77;;;4.40;75.20;;;3.17;61.19;99690.81;5016779;28;20404;-83
2021/04/13 06:53:57;;;;;;;11.93;9.27;;;4.30;74.60;;;2.83;62.08;99693.22;5012349;28;20444;-83
2021/04/13 06:56:50;;;;;;;20.30;10.38;;;4.10;75.90;;;3.01;62.05;99690.63;5115196;27;20370;-83
2021/04/13 06:59:47;;;;;;;15.68;9.95;;;4.10;76.60;;;2.98;62.21;99690.94;5092007;28;20415;-84
2021/04/13 07:02:20;;;;;;;20.45;11.55;;;4.20;76.20;;;3.05;62.04;99692.81;5088059;28;20900;-85
2021/04/13 07:04:59;;;;;;;14.05;9.82;;;4.20;76.50;;;2.88;62.99;99685.75;5098290;28;20473;-84
2021/04/13 07:07:33;;;;;;;16.40;9.70;;;4.00;77.00;;;3.01;62.11;99698.47;5094965;28;20468;-83
2021/04/13 07:10:11;;;;;;;15.63;10.35;;;4.20;76.20;;;3.01;62.56;99685.38;5094189;28;20434;-84
2021/04/13 07:12:42;;;;;;;16.80;10.38;;;4.10;76.70;;;3.27;62.17;99686.34;5095286;28;20420;-85
2021/04/13 07:15:15;;;;;;;17.20;10.27;;;4.40;76.50;;;3.60;60.54;99697.13;5093924;28;20423;-85
2021/04/13 07:17:48;;;;;;;13.63;8.73;;;4.70;75.20;;;3.69;59.87;99693.59;5096397;28;20506;-84
2021/04/13 07:20:20;;;;;;;14.95;9.85;;;4.90;73.60;;;3.23;60.75;99692.84;5096002;28;20421;-85
2021/04/13 07:22:54;;;;;;;14.15;9.20;;;4.50;74.20;;;3.41;60.56;99698.91;5097854;28;20492;-85
2021/04/13 07:25:23;;;;;;;15.98;11.25;;;4.60;74.80;;;3.29;61.62;99694.88;5109831;28;20411;-84
2021/04/13 07:27:54;;;;;;;12.63;9.07;;;4.40;75.70;;;2.93;62.87;99701.81;5127042;28;20712;-84
2021/04/13 07:30:26;;;;;;;16.33;11.60;;;4.20;76.60;;;3.21;63.04;99709.66;5110509;28;20403;-82
2021/04/13 07:32:54;;;;;;;21.75;12.88;;;4.30;77.60;;;3.47;62.72;99707.97;5111785;28;20444;-82
2021/04/13 07:35:23;;;;;;;16.65;11.40;;;4.60;77.50;;;3.18;63.34;99709.94;5111259;28;20431;-83
2021/04/13 07:37:52;;;;;;;17.00;13.33;;;4.50;77.40;;;3.37;64.58;99715.06;5110403;28;20399;-81
2021/04/13 07:40:26;;;;;;;16.87;12.73;;;4.50;79.10;;;3.30;64.81;99707.00;5109853;28;20507;-83
2021/04/13 07:42:59;;;;;;;17.33;12.70;;;4.50;79.10;;;3.25;65.08;99717.06;5108049;28;20411;-83
2021/04/13 07:45:38;;;;;;;18.15;12.52;;;4.50;79.90;;;3.14;65.83;99712.06;5097807;28;20399;-83
2021/04/13 07:48:22;;;;;;;21.80;14.80;;;4.40;80.90;;;3.14;66.49;99709.44;5095789;28;20773;-82
2021/04/13 07:51:14;;;;;;;20.08;13.30;;;4.30;81.70;;;3.20;65.37;99711.47;5098498;28;20410;-83
2021/04/13 07:53:55;;;;;;;17.40;13.20;;;4.40;81.10;;;3.34;65.18;99715.38;5093535;28;20422;-79
2021/04/13 07:56:33;;;;;;;20.38;12.63;;;4.40;80.10;;;3.28;65.19;99701.06;5111153;28;20490;-79
2021/04/13 07:59:07;;;;;;;24.10;14.23;;;4.40;79.90;;;3.81;63.84;99703.72;5096112;28;20419;-79
2021/04/13 08:01:34;;;;;;;18.75;13.25;;;4.80;79.60;;;3.47;63.56;99706.16;5095497;28;20403;-79
2021/04/13 08:04:00;;;;;;;19.08;14.20;;;4.70;77.80;;;3.68;63.82;99708.53;5095815;28;20801;-80
2021/04/13 08:06:53;;;;;;;19.93;12.87;;;4.70;78.50;;;3.43;64.20;99714.47;5089503;28;20547;-80
2021/04/13 08:09:42;;;;;;;17.00;12.75;;;4.70;78.20;;;3.19;64.53;99711.59;5080056;28;20483;-80
2021/04/13 08:12:24;;;;;;;19.98;14.48;;;4.40;79.10;;;3.36;65.24;99718.66;5070940;28;20405;-79
2021/04/13 08:15:11;;;;;;;18.50;11.63;;;4.40;80.40;;;3.37;63.62;99715.91;5073062;28;20453;-79
2021/04/13 08:17:59;;;;;;;16.63;12.00;;;4.50;78.40;;;3.61;62.71;99722.34;5075112;28;20405;-78
2021/04/13 08:20:29;;;;;;;13.98;11.30;;;4.60;78.00;;;3.64;62.15;99720.25;5074641;28;20429;-80
2021/04/13 08:23:00;;;;;;;12.80;9.07;;;4.80;76.60;;;3.53;61.08;99709.19;5073932;28;20497;-80
2021/04/13 08:25:34;;;;;;;13.07;9.68;;;4.70;74.80;;;3.23;62.21;99713.78;5069841;28;20548;-79
2021/04/13 08:28:08;;;;;;;16.92;11.30;;;4.50;76.10;;;3.38;62.31;99721.97;5064970;28;20409;-81
2021/04/13 08:30:57;;;;;;;13.30;9.90;;;4.50;77.10;;;3.26;62.64;99717.88;5064190;28;20401;-80
2021/04/13 08:33:34;;;;;;;18.83;10.50;;;4.50;76.80;;;3.09;63.23;99717.69;5066707;28;20481;-79
2021/04/13 08:36:12;;;;;;;13.35;10.60;;;4.30;77.30;;;3.10;62.68;99714.13;5065699;28;20428;-78
2021/04/13 08:38:57;;;;;;;16.25;11.20;;;4.30;76.90;;;3.37;61.95;99722.94;5061756;28;20425;-80
2021/04/13 08:41:44;;;;;;;13.20;10.77;;;4.30;76.90;;;3.43;61.53;99715.31;5062694;28;20488;-79
2021/04/13 08:44:46;;;;;;;15.13;12.00;;;4.60;76.10;;;3.96;60.93;99711.84;5067630;28;20406;-78
2021/04/13 08:47:20;;;;;;;20.13;13.73;;;4.80;76.00;;;4.56;59.17;99712.75;5055788;28;20417;-80
2021/04/13 08:49:53;;;;;;;15.70;12.02;;;5.40;74.70;;;4.97;57.04;99711.13;5063597;28;20721;-79
2021/04/13 08:52:42;;;;;;;16.92;12.13;;;6.00;71.30;;;4.78;57.07;99703.53;5079947;28;20410;-80
2021/04/13 08:55:14;;;;;;;23.58;13.30;;;5.90;70.20;;;5.04;56.47;99712.13;5076859;28;20416;-80
2021/04/13 08:57:44;;;;;;;19.73;12.20;;;6.00;70.00;;;4.43;57.03;99719.41;5078806;28;20933;-80
2021/04/13 09:00:39;;;;;;;16.02;11.20;;;5.70;70.00;;;4.42;57.69;99715.97;5076321;28;20408;-79
2021/04/13 09:03:09;;;;;;;20.73;12.95;;;5.50;70.80;;;5.12;56.43;99708.72;5076862;28;20477;-79
2021/04/13 09:05:39;;;;;;;15.88;11.50;;;5.90;71.10;;;5.88;53.29;99708.56;5077853;28;20443;-82
2021/04/13 09:08:21;;;;;;;17.02;11.05;;;6.70;67.50;;;6.54;51.27;99702.28;5080408;28;20414;-81
2021/04/13 09:11:06;;;;;;;13.50;7.88;;;7.30;64.90;;;6.91;47.64;99701.66;5080748;28;20403;-79
2021/04/13 09:13:37;;;;;;;11.05;8.13;;;7.80;59.70;;;6.81;46.97;99703.66;5079874;28;20472;-81
2021/04/13 09:16:21;;;;;;;19.17;11.15;;;7.80;58.30;;;5.06;53.42;99718.06;5080595;28;20449;-80
2021/04/13 09:18:57;;;;;;;20.75;10.32;;;6.50;64.00;;;4.65;54.50;99711.84;5080874;28;20606;-80
2021/04/13 09:21:44;;;;;;;15.52;10.45;;;5.90;66.60;;;4.48;54.82;99704.84;5081876;28;20407;-81
2021/04/13 09:24:21;;;;;;;15.55;10.30;;;5.60;67.20;;;4.78;53.98;99706.16;5084180;28;20704;-80
2021/04/13 09:27:14;;;;;;;16.02;10.35;;;5.80;66.70;;;4.73;53.39;99711.06;5089196;28;20559;-81
2021/04/13 09:29:45;;;;;;;14.38;10.27;;;5.80;65.90;;;5.07;52.57;99719.72;5089305;28;20416;-79
2021/04/13 09:32:34;;;;;;;13.57;9.50;;;6.10;65.00;;;5.15;50.88;99715.47;5091751;28;20418;-79
2021/04/13 09:35:51;;;;;;;13.43;8.55;;;6.20;63.40;;;5.40;49.86;99710.13;5090414;28;20434;-78
2021/04/13 09:39:15;;;;;;;12.98;8.65;;;6.30;61.20;;;5.75;47.22;99710.84;5055651;28;20426;-79
2021/04/13 09:42:04;;;;;;;11.13;9.27;;;6.70;58.70;;;5.79;47.46;99706.88;5088428;28;20551;-78
2021/04/13 09:45:06;;;;;;;14.00;9.55;;;6.80;58.20;;;5.79;47.96;99702.44;5080271;28;20399;-79
2021/04/13 09:48:11;;;;;;;12.55;9.20;;;6.80;58.60;;;5.79;48.21;99705.06;5077955;28;20423;-80
2021/04/13 09:50:57;;;;;;;14.20;9.82;;;6.80;59.20;;;5.88;47.85;99705.94;5079016;28;20544;-80
2021/04/13 09:54:11;;;;;;;15.32;9.63;;;6.90;59.00;;;6.25;46.01;99699.34;5078809;28;20469;-80
2021/04/13 09:57:55;;;;;;;13.70;8.68;;;7.10;57.70;;;6.58;43.81;99696.50;5077989;28;20435;-79
2021/04/13 10:01:04;;;;;;;12.03;8.67;;;7.50;55.70;;;7.47;42.04;99684.72;5015422;28;20601;-79
2021/04/13 10:03:57;;;;;;;10.50;7.97;;;8.20;53.40;;;7.84;40.77;99688.41;5078249;28;20411;-79
2021/04/13 10:06:31;;;;;;;10.38;8.27;;;8.70;51.40;;;8.42;39.41;99680.66;5077555;28;20404;-79
2021/04/13 10:09:11;;;;;;;10.10;7.65;;;9.10;50.30;;;8.88;38.35;99680.47;5077309;28;20416;-81
2021/04/13 10:12:18;;;;;;;9.55;7.82;;;9.60;48.90;;;8.97;37.47;99687.28;5077687;28;20473;-80
2021/04/13 10:15:21;;;;;;;13.07;7.95;;;9.90;47.30;;;6.43;45.95;99686.84;5077190;28;20431;-80
2021/04/13 10:18:27;;;;;;;11.68;7.95;;;7.70;54.60;;;5.27;48.52;99687.94;5079331;28;20440;-81
2021/04/13 10:21:03;;;;;;;16.33;9.48;;;6.60;57.90;;;5.42;48.43;99692.41;5080447;28;20461;-79
2021/04/13 10:23:58;;;;;;;14.73;9.52;;;6.50;58.80;;;5.55;47.06;99688.50;5079363;28;20667;-80
2021/04/13 10:27:12;;;;;;;14.43;8.90;;;6.60;57.50;;;5.47;46.70;99688.47;5078931;28;20404;-81
2021/04/13 10:30:30;;;;;;;14.13;8.80;;;6.50;56.60;;;5.45;46.91;99681.56;5074487;28;20470;-80
2021/04/13 10:33:31;;;;;;;16.80;9.52;;;6.60;57.20;;;5.17;48.13;99677.59;5052006;28;20488;-78
2021/04/13 10:37:03;;;;;;;16.65;9.75;;;6.40;58.10;;;5.37;45.42;99675.47;5078338;28;20433;-80
2021/04/13 10:39:43;;;;;;;12.38;8.68;;;6.30;56.30;;;6.38;44.75;99674.19;5057297;28;20420;-82
2021/04/13 10:43:10;;;;;;;13.15;6.97;;;7.10;56.10;;;7.10;39.27;99674.91;5079004;28;20522;-80
2021/04/13 10:46:05;;;;;;;11.60;6.53;;;7.90;49.30;;;7.74;37.24;99671.00;5077823;28;20426;-81
2021/04/13 10:49:16;;;;;;;9.33;6.83;;;8.60;47.00;;;7.53;38.15;99673.47;5079920;28;20531;-80
2021/04/13 10:52:43;;;;;;;11.93;6.28;;;8.80;46.20;;;6.47;38.08;99664.44;5079439;28;20392;-80
2021/04/13 10:55:28;;;;;;;12.45;6.85;;;8.00;45.50;;;7.21;38.51;99663.16;5077161;28;20428;-79
2021/04/13 10:58:44;;;;;;;8.27;6.85;;;8.00;48.10;;;7.65;37.69;99645.72;5080495;28;20411;-81
2021/04/13 11:02:00;;;;;;;9.32;6.65;;;8.60;46.90;;;8.09;37.04;99645.03;5076771;28;20420;-80
2021/04/13 11:05:20;;;;;;;10.68;6.65;;;8.90;46.30;;;8.34;35.92;99640.34;5075289;28;20736;-80
2021/04/13 11:08:51;;;;;;;8.13;6.35;;;9.20;44.70;;;8.75;34.72;99644.16;5074905;28;20407;-79
2021/04/13 11:12:01;;;;;;;14.98;6.28;;;9.60;43.30;;;8.74;34.84;99647.78;5077129;28;20412;-80
2021/04/13 11:15:11;;;;;;;9.85;5.97;;;9.70;42.70;;;9.11;33.81;99640.72;5076893;28;20415;-79
2021/04/13 11:17:56;;;;;;;10.90;6.45;;;9.90;41.90;;;8.30;32.38;99647.78;5055345;28;20798;-79